sensor_id;sensor_type;location;lat;lon;timestamp;pressure;altitude;pressure_sealevel;temperature
22828;BMP180;11580;52.562;13.418;2023-04-16T00:01:13;100526.00;;;14.20
22828;BMP180;11580;52.562;13.418;2023-04-16T00:03:40;100528.00;;;14.20
22828;BMP180;11580;52.562;13.418;2023-04-16T00:06:07;100528.00;;;14.20
22828;BMP180;11580;52.562;13.418;2023-04-16T00:08:34;100526.00;;;14.20
22828;BMP180;11580;52.562;13.418;2023-04-16T00:11:02;100532.00;;;14.20
22828;BMP180;11580;52.562;13.418;2023-04-16T00:13:29;100532.00;;;14.20
22828;BMP180;11580;52.562;13.418;2023-04-16T00:15:56;100542.00;;;14.20
22828;BMP180;11580;52.562;13.418;2023-04-16T00:18:25;100539.00;;;14.20
22828;BMP180;11580;52.562;13.418;2023-04-16T00:20:52;100542.00;;;14.20
22828;BMP180;11580;52.562;13.418;2023-04-16T00:23:20;100526.00;;;14.20
22828;BMP180;11580;52.562;13.418;2023-04-16T00:25:47;100536.00;;;14.10
22828;BMP180;11580;52.562;13.418;2023-04-16T00:28:14;100540.00;;;14.10
22828;BMP180;11580;52.562;13.418;2023-04-16T00:30:41;100537.00;;;14.10
22828;BMP180;11580;52.562;13.418;2023-04-16T00:33:08;100540.00;;;14.10
22828;BMP180;11580;52.562;13.418;2023-04-16T00:35:37;100541.00;;;14.10
22828;BMP180;11580;52.562;13.418;2023-04-16T00:38:04;100541.00;;;14.10
22828;BMP180;11580;52.562;13.418;2023-04-16T00:40:31;100540.00;;;14.10
22828;BMP180;11580;52.562;13.418;2023-04-16T00:42:58;100544.00;;;14.10
22828;BMP180;11580;52.562;13.418;2023-04-16T00:45:26;100552.00;;;14.10
22828;BMP180;11580;52.562;13.418;2023-04-16T00:47:53;100548.00;;;14.10
22828;BMP180;11580;52.562;13.418;2023-04-16T00:50:21;100536.00;;;14.10
22828;BMP180;11580;52.562;13.418;2023-04-16T00:52:50;100544.00;;;14.10
22828;BMP180;11580;52.562;13.418;2023-04-16T00:55:18;100541.00;;;14.10
22828;BMP180;11580;52.562;13.418;2023-04-16T00:57:46;100538.00;;;14.10
22828;BMP180;11580;52.562;13.418;2023-04-16T01:00:13;100540.00;;;14.10
22828;BMP180;11580;52.562;13.418;2023-04-16T01:02:41;100543.00;;;14.10
22828;BMP180;11580;52.562;13.418;2023-04-16T01:05:08;100551.00;;;14.20
22828;BMP180;11580;52.562;13.418;2023-04-16T01:07:36;100557.00;;;14.10
22828;BMP180;11580;52.562;13.418;2023-04-16T01:10:06;100551.00;;;14.10
22828;BMP180;11580;52.562;13.418;2023-04-16T01:12:33;100554.00;;;14.10
22828;BMP180;11580;52.562;13.418;2023-04-16T01:15:01;100553.00;;;14.10
22828;BMP180;11580;52.562;13.418;2023-04-16T01:17:28;100555.00;;;14.10
22828;BMP180;11580;52.562;13.418;2023-04-16T01:19:58;100560.00;;;14.10
22828;BMP180;11580;52.562;13.418;2023-04-16T01:22:27;100560.00;;;14.10
22828;BMP180;11580;52.562;13.418;2023-04-16T01:24:54;100573.00;;;14.10
22828;BMP180;11580;52.562;13.418;2023-04-16T01:27:22;100563.00;;;14.10
22828;BMP180;11580;52.562;13.418;2023-04-16T01:29:50;100574.00;;;14.20
22828;BMP180;11580;52.562;13.418;2023-04-16T01:32:22;100564.00;;;14.10
22828;BMP180;11580;52.562;13.418;2023-04-16T01:34:50;100564.00;;;14.20
22828;BMP180;11580;52.562;13.418;2023-04-16T01:37:17;100569.00;;;14.20
22828;BMP180;11580;52.562;13.418;2023-04-16T01:39:46;100575.00;;;14.20
22828;BMP180;11580;52.562;13.418;2023-04-16T01:42:13;100569.00;;;14.20
22828;BMP180;11580;52.562;13.418;2023-04-16T01:44:41;100569.00;;;14.20
22828;BMP180;11580;52.562;13.418;2023-04-16T01:47:08;100567.00;;;14.20
22828;BMP180;11580;52.562;13.418;2023-04-16T01:49:35;100572.00;;;14.20
22828;BMP180;11580;52.562;13.418;2023-04-16T01:52:03;100571.00;;;14.20
22828;BMP180;11580;52.562;13.418;2023-04-16T01:54:30;100577.00;;;14.20
22828;BMP180;11580;52.562;13.418;2023-04-16T01:56:59;100577.00;;;14.20
22828;BMP180;11580;52.562;13.418;2023-04-16T01:59:26;100578.00;;;14.10
22828;BMP180;11580;52.562;13.418;2023-04-16T02:01:55;100574.00;;;14.10
22828;BMP180;11580;52.562;13.418;2023-04-16T02:04:22;100581.00;;;14.10
22828;BMP180;11580;52.562;13.418;2023-04-16T02:06:49;100574.00;;;14.10
22828;BMP180;11580;52.562;13.418;2023-04-16T02:09:16;100579.00;;;14.10
22828;BMP180;11580;52.562;13.418;2023-04-16T02:11:43;100583.00;;;14.10
22828;BMP180;11580;52.562;13.418;2023-04-16T02:14:12;100588.00;;;14.10
22828;BMP180;11580;52.562;13.418;2023-04-16T02:16:39;100593.00;;;14.10
22828;BMP180;11580;52.562;13.418;2023-04-16T02:19:16;100596.00;;;14.10
22828;BMP180;11580;52.562;13.418;2023-04-16T02:21:44;100589.00;;;14.10
22828;BMP180;11580;52.562;13.418;2023-04-16T02:24:11;100589.00;;;14.00
22828;BMP180;11580;52.562;13.418;2023-04-16T02:26:39;100587.00;;;14.00
22828;BMP180;11580;52.562;13.418;2023-04-16T02:29:14;100592.00;;;14.00
22828;BMP180;11580;52.562;13.418;2023-04-16T02:31:46;100587.00;;;14.00
22828;BMP180;11580;52.562;13.418;2023-04-16T02:34:15;100587.00;;;14.00
22828;BMP180;11580;52.562;13.418;2023-04-16T02:36:42;100588.00;;;14.00
22828;BMP180;11580;52.562;13.418;2023-04-16T02:39:09;100598.00;;;14.00
22828;BMP180;11580;52.562;13.418;2023-04-16T02:41:37;100588.00;;;13.90
22828;BMP180;11580;52.562;13.418;2023-04-16T02:44:05;100601.00;;;13.90
22828;BMP180;11580;52.562;13.418;2023-04-16T02:46:33;100597.00;;;13.90
22828;BMP180;11580;52.562;13.418;2023-04-16T02:49:01;100596.00;;;13.90
22828;BMP180;11580;52.562;13.418;2023-04-16T02:51:28;100603.00;;;13.90
22828;BMP180;11580;52.562;13.418;2023-04-16T02:53:55;100597.00;;;13.90
22828;BMP180;11580;52.562;13.418;2023-04-16T02:56:23;100609.00;;;13.90
22828;BMP180;11580;52.562;13.418;2023-04-16T02:58:50;100604.00;;;13.90
22828;BMP180;11580;52.562;13.418;2023-04-16T03:01:18;100601.00;;;13.90
22828;BMP180;11580;52.562;13.418;2023-04-16T03:03:50;100614.00;;;13.80
22828;BMP180;11580;52.562;13.418;2023-04-16T03:06:17;100607.00;;;13.80
22828;BMP180;11580;52.562;13.418;2023-04-16T03:08:44;100623.00;;;13.80
22828;BMP180;11580;52.562;13.418;2023-04-16T03:11:11;100619.00;;;13.80
22828;BMP180;11580;52.562;13.418;2023-04-16T03:13:38;100615.00;;;13.80
22828;BMP180;11580;52.562;13.418;2023-04-16T03:16:06;100619.00;;;13.80
22828;BMP180;11580;52.562;13.418;2023-04-16T03:18:33;100615.00;;;13.80
22828;BMP180;11580;52.562;13.418;2023-04-16T03:21:03;100634.00;;;13.80
22828;BMP180;11580;52.562;13.418;2023-04-16T03:23:31;100618.00;;;13.70
22828;BMP180;11580;52.562;13.418;2023-04-16T03:25:58;100594.00;;;13.70
22828;BMP180;11580;52.562;13.418;2023-04-16T03:28:25;100624.00;;;13.70
22828;BMP180;11580;52.562;13.418;2023-04-16T03:30:52;100629.00;;;13.70
22828;BMP180;11580;52.562;13.418;2023-04-16T03:33:20;100621.00;;;13.70
22828;BMP180;11580;52.562;13.418;2023-04-16T03:35:54;100630.00;;;13.70
22828;BMP180;11580;52.562;13.418;2023-04-16T03:38:25;100624.00;;;13.70
22828;BMP180;11580;52.562;13.418;2023-04-16T03:40:55;100627.00;;;13.70
22828;BMP180;11580;52.562;13.418;2023-04-16T03:43:22;100623.00;;;13.70
22828;BMP180;11580;52.562;13.418;2023-04-16T03:45:50;100628.00;;;13.60
22828;BMP180;11580;52.562;13.418;2023-04-16T03:48:20;100628.00;;;13.70
22828;BMP180;11580;52.562;13.418;2023-04-16T03:50:47;100638.00;;;13.60
22828;BMP180;11580;52.562;13.418;2023-04-16T03:53:17;100633.00;;;13.60
22828;BMP180;11580;52.562;13.418;2023-04-16T03:55:49;100635.00;;;13.60
22828;BMP180;11580;52.562;13.418;2023-04-16T03:58:17;100637.00;;;13.60
22828;BMP180;11580;52.562;13.418;2023-04-16T04:00:46;100639.00;;;13.60
22828;BMP180;11580;52.562;13.418;2023-04-16T04:03:15;100648.00;;;13.60
22828;BMP180;11580;52.562;13.418;2023-04-16T04:05:44;100642.00;;;13.60
22828;BMP180;11580;52.562;13.418;2023-04-16T04:08:14;100641.00;;;13.50
22828;BMP180;11580;52.562;13.418;2023-04-16T04:10:42;100646.00;;;13.60
22828;BMP180;11580;52.562;13.418;2023-04-16T04:13:13;100652.00;;;13.60
22828;BMP180;11580;52.562;13.418;2023-04-16T04:15:40;100663.00;;;13.60
22828;BMP180;11580;52.562;13.418;2023-04-16T04:18:07;100665.00;;;13.60
22828;BMP180;11580;52.562;13.418;2023-04-16T04:20:38;100657.00;;;13.70
22828;BMP180;11580;52.562;13.418;2023-04-16T04:23:06;100663.00;;;13.70
22828;BMP180;11580;52.562;13.418;2023-04-16T04:25:34;100664.00;;;13.70
22828;BMP180;11580;52.562;13.418;2023-04-16T04:28:01;100666.00;;;13.70
22828;BMP180;11580;52.562;13.418;2023-04-16T04:30:29;100661.00;;;13.70
22828;BMP180;11580;52.562;13.418;2023-04-16T04:32:57;100667.00;;;13.70
22828;BMP180;11580;52.562;13.418;2023-04-16T04:35:24;100668.00;;;13.70
22828;BMP180;11580;52.562;13.418;2023-04-16T04:37:52;100668.00;;;13.70
22828;BMP180;11580;52.562;13.418;2023-04-16T04:40:20;100669.00;;;13.70
22828;BMP180;11580;52.562;13.418;2023-04-16T04:42:47;100676.00;;;13.80
22828;BMP180;11580;52.562;13.418;2023-04-16T04:45:15;100681.00;;;13.70
22828;BMP180;11580;52.562;13.418;2023-04-16T04:47:43;100680.00;;;13.70
22828;BMP180;11580;52.562;13.418;2023-04-16T04:50:11;100677.00;;;13.70
22828;BMP180;11580;52.562;13.418;2023-04-16T04:52:38;100690.00;;;13.70
22828;BMP180;11580;52.562;13.418;2023-04-16T04:55:07;100682.00;;;13.70
22828;BMP180;11580;52.562;13.418;2023-04-16T04:57:35;100677.00;;;13.70
22828;BMP180;11580;52.562;13.418;2023-04-16T05:00:04;100696.00;;;13.70
22828;BMP180;11580;52.562;13.418;2023-04-16T05:02:41;100686.00;;;13.70
22828;BMP180;11580;52.562;13.418;2023-04-16T05:05:09;100697.00;;;13.70
22828;BMP180;11580;52.562;13.418;2023-04-16T05:07:37;100689.00;;;13.70
22828;BMP180;11580;52.562;13.418;2023-04-16T05:10:05;100696.00;;;13.70
22828;BMP180;11580;52.562;13.418;2023-04-16T05:12:45;100706.00;;;13.70
22828;BMP180;11580;52.562;13.418;2023-04-16T05:15:14;100706.00;;;13.70
22828;BMP180;11580;52.562;13.418;2023-04-16T05:17:41;100708.00;;;13.60
22828;BMP180;11580;52.562;13.418;2023-04-16T05:20:10;100707.00;;;13.60
22828;BMP180;11580;52.562;13.418;2023-04-16T05:22:37;100715.00;;;13.60
22828;BMP180;11580;52.562;13.418;2023-04-16T05:25:05;100718.00;;;13.60
22828;BMP180;11580;52.562;13.418;2023-04-16T05:27:32;100713.00;;;13.60
22828;BMP180;11580;52.562;13.418;2023-04-16T05:29:59;100717.00;;;13.50
22828;BMP180;11580;52.562;13.418;2023-04-16T05:32:27;100720.00;;;13.50
22828;BMP180;11580;52.562;13.418;2023-04-16T05:34:54;100722.00;;;13.40
22828;BMP180;11580;52.562;13.418;2023-04-16T05:37:22;100716.00;;;13.40
22828;BMP180;11580;52.562;13.418;2023-04-16T05:39:50;100722.00;;;13.40
22828;BMP180;11580;52.562;13.418;2023-04-16T05:42:17;100714.00;;;13.40
22828;BMP180;11580;52.562;13.418;2023-04-16T05:44:44;100725.00;;;13.40
22828;BMP180;11580;52.562;13.418;2023-04-16T05:47:11;100726.00;;;13.40
22828;BMP180;11580;52.562;13.418;2023-04-16T05:49:38;100727.00;;;13.30
22828;BMP180;11580;52.562;13.418;2023-04-16T05:52:05;100733.00;;;13.30
22828;BMP180;11580;52.562;13.418;2023-04-16T05:54:34;100728.00;;;13.30
22828;BMP180;11580;52.562;13.418;2023-04-16T05:57:02;100727.00;;;13.30
22828;BMP180;11580;52.562;13.418;2023-04-16T05:59:29;100730.00;;;13.30
22828;BMP180;11580;52.562;13.418;2023-04-16T06:01:56;100735.00;;;13.30
22828;BMP180;11580;52.562;13.418;2023-04-16T06:04:24;100734.00;;;13.30
22828;BMP180;11580;52.562;13.418;2023-04-16T06:06:51;100741.00;;;13.30
22828;BMP180;11580;52.562;13.418;2023-04-16T06:09:18;100740.00;;;13.40
22828;BMP180;11580;52.562;13.418;2023-04-16T06:11:47;100747.00;;;13.40
22828;BMP180;11580;52.562;13.418;2023-04-16T06:14:14;100750.00;;;13.40
22828;BMP180;11580;52.562;13.418;2023-04-16T06:16:41;100753.00;;;13.40
22828;BMP180;11580;52.562;13.418;2023-04-16T06:19:09;100754.00;;;13.40
22828;BMP180;11580;52.562;13.418;2023-04-16T06:21:37;100758.00;;;13.40
22828;BMP180;11580;52.562;13.418;2023-04-16T06:24:04;100753.00;;;13.50
22828;BMP180;11580;52.562;13.418;2023-04-16T06:26:32;100752.00;;;13.50
22828;BMP180;11580;52.562;13.418;2023-04-16T06:29:00;100765.00;;;13.50
22828;BMP180;11580;52.562;13.418;2023-04-16T06:31:28;100762.00;;;13.50
22828;BMP180;11580;52.562;13.418;2023-04-16T06:33:55;100760.00;;;13.50
22828;BMP180;11580;52.562;13.418;2023-04-16T06:36:23;100759.00;;;13.60
22828;BMP180;11580;52.562;13.418;2023-04-16T06:38:51;100770.00;;;13.60
22828;BMP180;11580;52.562;13.418;2023-04-16T06:41:19;100771.00;;;13.60
22828;BMP180;11580;52.562;13.418;2023-04-16T06:43:47;100765.00;;;13.60
22828;BMP180;11580;52.562;13.418;2023-04-16T06:46:16;100770.00;;;13.60
22828;BMP180;11580;52.562;13.418;2023-04-16T06:48:43;100767.00;;;13.60
22828;BMP180;11580;52.562;13.418;2023-04-16T06:51:10;100764.00;;;13.60
22828;BMP180;11580;52.562;13.418;2023-04-16T06:53:38;100768.00;;;13.60
22828;BMP180;11580;52.562;13.418;2023-04-16T06:56:06;100781.00;;;13.60
22828;BMP180;11580;52.562;13.418;2023-04-16T06:58:33;100778.00;;;13.70
22828;BMP180;11580;52.562;13.418;2023-04-16T07:01:01;100778.00;;;13.70
22828;BMP180;11580;52.562;13.418;2023-04-16T07:03:30;100782.00;;;13.70
22828;BMP180;11580;52.562;13.418;2023-04-16T07:05:57;100785.00;;;13.70
22828;BMP180;11580;52.562;13.418;2023-04-16T07:08:24;100784.00;;;13.70
22828;BMP180;11580;52.562;13.418;2023-04-16T07:10:52;100791.00;;;13.70
22828;BMP180;11580;52.562;13.418;2023-04-16T07:13:20;100789.00;;;13.70
22828;BMP180;11580;52.562;13.418;2023-04-16T07:15:47;100782.00;;;13.70
22828;BMP180;11580;52.562;13.418;2023-04-16T07:18:14;100795.00;;;13.70
22828;BMP180;11580;52.562;13.418;2023-04-16T07:20:43;100795.00;;;13.80
22828;BMP180;11580;52.562;13.418;2023-04-16T07:23:10;100801.00;;;13.80
22828;BMP180;11580;52.562;13.418;2023-04-16T07:25:37;100798.00;;;13.80
22828;BMP180;11580;52.562;13.418;2023-04-16T07:28:05;100803.00;;;13.80
22828;BMP180;11580;52.562;13.418;2023-04-16T07:30:32;100808.00;;;13.80
22828;BMP180;11580;52.562;13.418;2023-04-16T07:33:01;100798.00;;;13.80
22828;BMP180;11580;52.562;13.418;2023-04-16T07:35:29;100810.00;;;13.80
22828;BMP180;11580;52.562;13.418;2023-04-16T07:37:57;100815.00;;;13.70
22828;BMP180;11580;52.562;13.418;2023-04-16T07:40:25;100811.00;;;13.70
22828;BMP180;11580;52.562;13.418;2023-04-16T07:42:53;100815.00;;;13.70
22828;BMP180;11580;52.562;13.418;2023-04-16T07:45:20;100814.00;;;13.80
22828;BMP180;11580;52.562;13.418;2023-04-16T07:47:48;100818.00;;;13.80
22828;BMP180;11580;52.562;13.418;2023-04-16T07:50:15;100819.00;;;13.80
22828;BMP180;11580;52.562;13.418;2023-04-16T07:52:44;100824.00;;;13.80
22828;BMP180;11580;52.562;13.418;2023-04-16T07:55:12;100825.00;;;13.80
22828;BMP180;11580;52.562;13.418;2023-04-16T07:57:40;100828.00;;;13.80
22828;BMP180;11580;52.562;13.418;2023-04-16T08:00:09;100829.00;;;13.90
22828;BMP180;11580;52.562;13.418;2023-04-16T08:02:40;100833.00;;;13.80
22828;BMP180;11580;52.562;13.418;2023-04-16T08:05:07;100844.00;;;13.80
22828;BMP180;11580;52.562;13.418;2023-04-16T08:07:35;100844.00;;;13.80
22828;BMP180;11580;52.562;13.418;2023-04-16T08:10:03;100837.00;;;13.80
22828;BMP180;11580;52.562;13.418;2023-04-16T08:12:32;100839.00;;;13.80
22828;BMP180;11580;52.562;13.418;2023-04-16T08:15:00;100838.00;;;13.80
22828;BMP180;11580;52.562;13.418;2023-04-16T08:17:27;100844.00;;;13.80
22828;BMP180;11580;52.562;13.418;2023-04-16T08:19:54;100843.00;;;13.80
22828;BMP180;11580;52.562;13.418;2023-04-16T08:22:22;100851.00;;;13.70
22828;BMP180;11580;52.562;13.418;2023-04-16T08:24:49;100851.00;;;13.70
22828;BMP180;11580;52.562;13.418;2023-04-16T08:27:16;100855.00;;;13.70
22828;BMP180;11580;52.562;13.418;2023-04-16T08:29:45;100851.00;;;13.70
22828;BMP180;11580;52.562;13.418;2023-04-16T08:32:12;100828.00;;;13.80
22828;BMP180;11580;52.562;13.418;2023-04-16T08:34:40;100860.00;;;13.80
22828;BMP180;11580;52.562;13.418;2023-04-16T08:37:08;100863.00;;;13.80
22828;BMP180;11580;52.562;13.418;2023-04-16T08:39:35;100869.00;;;13.90
22828;BMP180;11580;52.562;13.418;2023-04-16T08:42:05;100865.00;;;13.90
22828;BMP180;11580;52.562;13.418;2023-04-16T08:44:45;100875.00;;;14.00
22828;BMP180;11580;52.562;13.418;2023-04-16T08:47:15;100875.00;;;14.00
22828;BMP180;11580;52.562;13.418;2023-04-16T08:49:43;100873.00;;;14.00
22828;BMP180;11580;52.562;13.418;2023-04-16T08:52:17;100879.00;;;14.00
22828;BMP180;11580;52.562;13.418;2023-04-16T08:54:51;100887.00;;;14.00
22828;BMP180;11580;52.562;13.418;2023-04-16T08:57:27;100889.00;;;14.00
22828;BMP180;11580;52.562;13.418;2023-04-16T08:59:58;100878.00;;;14.00
22828;BMP180;11580;52.562;13.418;2023-04-16T09:02:26;100882.00;;;14.10
22828;BMP180;11580;52.562;13.418;2023-04-16T09:04:55;100888.00;;;14.10
22828;BMP180;11580;52.562;13.418;2023-04-16T09:07:26;100887.00;;;14.20
22828;BMP180;11580;52.562;13.418;2023-04-16T09:09:56;100886.00;;;14.30
22828;BMP180;11580;52.562;13.418;2023-04-16T09:12:25;100897.00;;;14.40
22828;BMP180;11580;52.562;13.418;2023-04-16T09:14:52;100886.00;;;14.60
22828;BMP180;11580;52.562;13.418;2023-04-16T09:17:21;100904.00;;;14.70
22828;BMP180;11580;52.562;13.418;2023-04-16T09:19:49;100907.00;;;14.70
22828;BMP180;11580;52.562;13.418;2023-04-16T09:22:16;100902.00;;;14.70
22828;BMP180;11580;52.562;13.418;2023-04-16T09:24:43;100917.00;;;14.70
22828;BMP180;11580;52.562;13.418;2023-04-16T09:27:11;100914.00;;;14.70
22828;BMP180;11580;52.562;13.418;2023-04-16T09:29:40;100914.00;;;14.70
22828;BMP180;11580;52.562;13.418;2023-04-16T09:32:09;100914.00;;;14.70
22828;BMP180;11580;52.562;13.418;2023-04-16T09:34:58;100891.00;;;14.60
22828;BMP180;11580;52.562;13.418;2023-04-16T09:37:26;100915.00;;;14.60
22828;BMP180;11580;52.562;13.418;2023-04-16T09:39:57;100916.00;;;14.60
22828;BMP180;11580;52.562;13.418;2023-04-16T09:42:26;100918.00;;;14.60
22828;BMP180;11580;52.562;13.418;2023-04-16T09:44:54;100921.00;;;14.60
22828;BMP180;11580;52.562;13.418;2023-04-16T09:47:25;100922.00;;;14.60
22828;BMP180;11580;52.562;13.418;2023-04-16T09:49:59;100928.00;;;14.60
22828;BMP180;11580;52.562;13.418;2023-04-16T09:52:26;100921.00;;;14.60
22828;BMP180;11580;52.562;13.418;2023-04-16T09:54:53;100925.00;;;14.60
22828;BMP180;11580;52.562;13.418;2023-04-16T09:57:22;100921.00;;;14.60
22828;BMP180;11580;52.562;13.418;2023-04-16T09:59:53;100934.00;;;14.60
22828;BMP180;11580;52.562;13.418;2023-04-16T10:02:26;100897.00;;;14.60
22828;BMP180;11580;52.562;13.418;2023-04-16T10:04:53;100929.00;;;14.70
22828;BMP180;11580;52.562;13.418;2023-04-16T10:07:27;100928.00;;;14.80
22828;BMP180;11580;52.562;13.418;2023-04-16T10:09:54;100932.00;;;14.80
22828;BMP180;11580;52.562;13.418;2023-04-16T10:12:22;100937.00;;;14.80
22828;BMP180;11580;52.562;13.418;2023-04-16T10:14:49;100939.00;;;15.00
22828;BMP180;11580;52.562;13.418;2023-04-16T10:17:17;100943.00;;;15.00
22828;BMP180;11580;52.562;13.418;2023-04-16T10:19:45;100939.00;;;15.10
22828;BMP180;11580;52.562;13.418;2023-04-16T10:22:13;100939.00;;;15.20
22828;BMP180;11580;52.562;13.418;2023-04-16T10:24:42;100941.00;;;15.20
22828;BMP180;11580;52.562;13.418;2023-04-16T10:27:10;100947.00;;;15.30
22828;BMP180;11580;52.562;13.418;2023-04-16T10:29:37;100947.00;;;15.40
22828;BMP180;11580;52.562;13.418;2023-04-16T10:32:06;100957.00;;;15.50
22828;BMP180;11580;52.562;13.418;2023-04-16T10:34:35;100937.00;;;15.50
22828;BMP180;11580;52.562;13.418;2023-04-16T10:37:02;100956.00;;;15.50
22828;BMP180;11580;52.562;13.418;2023-04-16T10:39:29;100955.00;;;15.50
22828;BMP180;11580;52.562;13.418;2023-04-16T10:42:11;100950.00;;;15.60
22828;BMP180;11580;52.562;13.418;2023-04-16T10:44:39;100955.00;;;15.60
22828;BMP180;11580;52.562;13.418;2023-04-16T10:47:11;100960.00;;;15.70
22828;BMP180;11580;52.562;13.418;2023-04-16T10:49:39;100959.00;;;15.90
22828;BMP180;11580;52.562;13.418;2023-04-16T10:52:10;100951.00;;;16.10
22828;BMP180;11580;52.562;13.418;2023-04-16T10:54:38;100955.00;;;16.20
22828;BMP180;11580;52.562;13.418;2023-04-16T10:57:14;100961.00;;;16.40
22828;BMP180;11580;52.562;13.418;2023-04-16T10:59:43;100956.00;;;16.50
22828;BMP180;11580;52.562;13.418;2023-04-16T11:02:13;100965.00;;;16.70
22828;BMP180;11580;52.562;13.418;2023-04-16T11:04:42;100971.00;;;16.90
22828;BMP180;11580;52.562;13.418;2023-04-16T11:07:19;100968.00;;;17.10
22828;BMP180;11580;52.562;13.418;2023-04-16T11:09:55;100976.00;;;17.20
22828;BMP180;11580;52.562;13.418;2023-04-16T11:12:25;100976.00;;;17.20
22828;BMP180;11580;52.562;13.418;2023-04-16T11:14:58;100975.00;;;17.10
22828;BMP180;11580;52.562;13.418;2023-04-16T11:17:31;100979.00;;;17.00
22828;BMP180;11580;52.562;13.418;2023-04-16T11:19:58;100985.00;;;16.90
22828;BMP180;11580;52.562;13.418;2023-04-16T11:22:26;100986.00;;;16.80
22828;BMP180;11580;52.562;13.418;2023-04-16T11:24:55;100983.00;;;16.70
22828;BMP180;11580;52.562;13.418;2023-04-16T11:27:24;100979.00;;;16.60
22828;BMP180;11580;52.562;13.418;2023-04-16T11:29:59;100976.00;;;16.50
22828;BMP180;11580;52.562;13.418;2023-04-16T11:32:30;100977.00;;;16.50
22828;BMP180;11580;52.562;13.418;2023-04-16T11:34:57;100973.00;;;16.50
22828;BMP180;11580;52.562;13.418;2023-04-16T11:37:32;100980.00;;;16.50
22828;BMP180;11580;52.562;13.418;2023-04-16T11:40:00;100975.00;;;16.50
22828;BMP180;11580;52.562;13.418;2023-04-16T11:42:29;100981.00;;;16.60
22828;BMP180;11580;52.562;13.418;2023-04-16T11:44:59;100983.00;;;16.60
22828;BMP180;11580;52.562;13.418;2023-04-16T11:47:28;100974.00;;;16.70
22828;BMP180;11580;52.562;13.418;2023-04-16T11:49:56;100987.00;;;16.70
22828;BMP180;11580;52.562;13.418;2023-04-16T11:52:29;100992.00;;;16.70
22828;BMP180;11580;52.562;13.418;2023-04-16T11:54:56;100991.00;;;16.60
22828;BMP180;11580;52.562;13.418;2023-04-16T11:57:26;100995.00;;;16.70
22828;BMP180;11580;52.562;13.418;2023-04-16T11:59:55;100992.00;;;16.60
22828;BMP180;11580;52.562;13.418;2023-04-16T12:02:42;100977.00;;;16.50
22828;BMP180;11580;52.562;13.418;2023-04-16T12:05:29;100997.00;;;16.40
22828;BMP180;11580;52.562;13.418;2023-04-16T12:07:59;101000.00;;;16.30
22828;BMP180;11580;52.562;13.418;2023-04-16T12:10:27;101005.00;;;16.20
22828;BMP180;11580;52.562;13.418;2023-04-16T12:13:08;101004.00;;;16.20
22828;BMP180;11580;52.562;13.418;2023-04-16T12:15:45;101008.00;;;16.00
22828;BMP180;11580;52.562;13.418;2023-04-16T12:18:12;101008.00;;;15.90
22828;BMP180;11580;52.562;13.418;2023-04-16T12:20:41;100997.00;;;15.80
22828;BMP180;11580;52.562;13.418;2023-04-16T12:23:09;101011.00;;;15.70
22828;BMP180;11580;52.562;13.418;2023-04-16T12:25:42;101021.00;;;15.70
22828;BMP180;11580;52.562;13.418;2023-04-16T12:28:09;101017.00;;;15.60
22828;BMP180;11580;52.562;13.418;2023-04-16T12:30:49;101014.00;;;15.50
22828;BMP180;11580;52.562;13.418;2023-04-16T12:33:18;101016.00;;;15.50
22828;BMP180;11580;52.562;13.418;2023-04-16T12:35:46;101015.00;;;15.50
22828;BMP180;11580;52.562;13.418;2023-04-16T12:38:13;101014.00;;;15.50
22828;BMP180;11580;52.562;13.418;2023-04-16T12:40:41;101014.00;;;15.50
22828;BMP180;11580;52.562;13.418;2023-04-16T12:43:08;101018.00;;;15.50
22828;BMP180;11580;52.562;13.418;2023-04-16T12:45:37;101020.00;;;15.50
22828;BMP180;11580;52.562;13.418;2023-04-16T12:48:06;101012.00;;;15.50
22828;BMP180;11580;52.562;13.418;2023-04-16T12:50:33;101013.00;;;15.50
22828;BMP180;11580;52.562;13.418;2023-04-16T12:53:01;101013.00;;;15.40
22828;BMP180;11580;52.562;13.418;2023-04-16T12:55:28;101020.00;;;15.40
22828;BMP180;11580;52.562;13.418;2023-04-16T12:57:55;101018.00;;;15.30
22828;BMP180;11580;52.562;13.418;2023-04-16T13:00:23;101014.00;;;15.30
22828;BMP180;11580;52.562;13.418;2023-04-16T13:02:50;101014.00;;;15.20
22828;BMP180;11580;52.562;13.418;2023-04-16T13:05:18;101024.00;;;15.20
22828;BMP180;11580;52.562;13.418;2023-04-16T13:07:46;101028.00;;;15.20
22828;BMP180;11580;52.562;13.418;2023-04-16T13:10:13;101026.00;;;15.10
22828;BMP180;11580;52.562;13.418;2023-04-16T13:12:41;101024.00;;;15.20
22828;BMP180;11580;52.562;13.418;2023-04-16T13:15:09;101021.00;;;15.20
22828;BMP180;11580;52.562;13.418;2023-04-16T13:17:37;101023.00;;;15.20
22828;BMP180;11580;52.562;13.418;2023-04-16T13:20:05;101033.00;;;15.30
22828;BMP180;11580;52.562;13.418;2023-04-16T13:22:34;101034.00;;;15.40
22828;BMP180;11580;52.562;13.418;2023-04-16T13:25:01;101036.00;;;15.50
22828;BMP180;11580;52.562;13.418;2023-04-16T13:27:28;101031.00;;;15.60
22828;BMP180;11580;52.562;13.418;2023-04-16T13:29:56;101033.00;;;15.70
22828;BMP180;11580;52.562;13.418;2023-04-16T13:32:24;101036.00;;;15.80
22828;BMP180;11580;52.562;13.418;2023-04-16T13:34:51;101034.00;;;15.90
22828;BMP180;11580;52.562;13.418;2023-04-16T13:37:18;101045.00;;;16.00
22828;BMP180;11580;52.562;13.418;2023-04-16T13:39:47;101049.00;;;16.10
22828;BMP180;11580;52.562;13.418;2023-04-16T13:42:14;101045.00;;;16.20
22828;BMP180;11580;52.562;13.418;2023-04-16T13:44:41;101043.00;;;16.30
22828;BMP180;11580;52.562;13.418;2023-04-16T13:47:08;101042.00;;;16.40
22828;BMP180;11580;52.562;13.418;2023-04-16T13:49:36;101044.00;;;16.60
22828;BMP180;11580;52.562;13.418;2023-04-16T13:52:03;101052.00;;;16.70